sensor_id;sensor_type;location;lat;lon;timestamp;P1;durP1;ratioP1;P2;durP2;ratioP2
66143;SDS011;52947;50.842;6.084;2023-03-07T00:01:05;9.93;;;5.47;;
66143;SDS011;52947;50.842;6.084;2023-03-07T00:03:33;10.20;;;6.03;;
66143;SDS011;52947;50.842;6.084;2023-03-07T00:06:02;11.43;;;7.43;;
66143;SDS011;52947;50.842;6.084;2023-03-07T00:08:32;14.88;;;8.10;;
66143;SDS011;52947;50.842;6.084;2023-03-07T00:11:01;10.13;;;6.25;;
66143;SDS011;52947;50.842;6.084;2023-03-07T00:13:30;11.23;;;6.47;;
66143;SDS011;52947;50.842;6.084;2023-03-07T00:15:59;9.70;;;5.72;;
66143;SDS011;52947;50.842;6.084;2023-03-07T00:18:30;11.30;;;6.57;;
66143;SDS011;52947;50.842;6.084;2023-03-07T00:20:59;8.95;;;5.85;;
66143;SDS011;52947;50.842;6.084;2023-03-07T00:23:28;8.82;;;6.15;;
66143;SDS011;52947;50.842;6.084;2023-03-07T00:25:59;8.05;;;5.63;;
66143;SDS011;52947;50.842;6.084;2023-03-07T00:28:28;10.60;;;6.20;;
66143;SDS011;52947;50.842;6.084;2023-03-07T00:30:58;9.88;;;5.78;;
66143;SDS011;52947;50.842;6.084;2023-03-07T00:33:30;8.32;;;4.95;;
66143;SDS011;52947;50.842;6.084;2023-03-07T00:38:27;7.32;;;4.43;;
66143;SDS011;52947;50.842;6.084;2023-03-07T00:40:56;7.15;;;4.93;;
66143;SDS011;52947;50.842;6.084;2023-03-07T00:43:25;7.18;;;5.13;;
66143;SDS011;52947;50.842;6.084;2023-03-07T00:45:53;7.28;;;4.60;;
66143;SDS011;52947;50.842;6.084;2023-03-07T00:48:21;10.55;;;5.60;;
66143;SDS011;52947;50.842;6.084;2023-03-07T00:50:51;6.55;;;4.38;;
66143;SDS011;52947;50.842;6.084;2023-03-07T00:53:19;8.23;;;4.55;;
66143;SDS011;52947;50.842;6.084;2023-03-07T00:55:54;7.38;;;4.30;;
66143;SDS011;52947;50.842;6.084;2023-03-07T00:58:24;7.85;;;5.40;;
66143;SDS011;52947;50.842;6.084;2023-03-07T01:00:52;7.80;;;4.90;;
66143;SDS011;52947;50.842;6.084;2023-03-07T01:03:20;9.45;;;5.60;;
66143;SDS011;52947;50.842;6.084;2023-03-07T01:05:50;8.55;;;5.28;;
66143;SDS011;52947;50.842;6.084;2023-03-07T01:08:21;10.00;;;4.97;;
66143;SDS011;52947;50.842;6.084;2023-03-07T01:10:49;9.82;;;5.47;;
66143;SDS011;52947;50.842;6.084;2023-03-07T01:13:19;9.40;;;6.18;;
66143;SDS011;52947;50.842;6.084;2023-03-07T01:15:47;8.70;;;5.72;;
66143;SDS011;52947;50.842;6.084;2023-03-07T01:18:15;6.88;;;4.88;;
66143;SDS011;52947;50.842;6.084;2023-03-07T01:20:44;11.07;;;5.03;;
66143;SDS011;52947;50.842;6.084;2023-03-07T01:23:13;11.00;;;6.35;;
66143;SDS011;52947;50.842;6.084;2023-03-07T01:25:41;10.70;;;6.03;;
66143;SDS011;52947;50.842;6.084;2023-03-07T01:28:11;7.25;;;4.82;;
66143;SDS011;52947;50.842;6.084;2023-03-07T01:30:40;7.38;;;5.63;;
66143;SDS011;52947;50.842;6.084;2023-03-07T01:33:08;9.70;;;6.05;;
66143;SDS011;52947;50.842;6.084;2023-03-07T01:35:37;9.65;;;5.30;;
66143;SDS011;52947;50.842;6.084;2023-03-07T01:38:06;9.40;;;5.72;;
66143;SDS011;52947;50.842;6.084;2023-03-07T01:40:37;7.93;;;4.57;;
66143;SDS011;52947;50.842;6.084;2023-03-07T01:43:22;10.43;;;5.88;;
66143;SDS011;52947;50.842;6.084;2023-03-07T01:49:10;8.05;;;5.63;;
66143;SDS011;52947;50.842;6.084;2023-03-07T01:51:46;9.43;;;6.20;;
66143;SDS011;52947;50.842;6.084;2023-03-07T01:54:18;11.25;;;7.63;;
66143;SDS011;52947;50.842;6.084;2023-03-07T01:56:52;9.30;;;5.53;;
66143;SDS011;52947;50.842;6.084;2023-03-07T01:59:22;9.02;;;6.05;;
66143;SDS011;52947;50.842;6.084;2023-03-07T02:01:54;8.27;;;5.55;;
66143;SDS011;52947;50.842;6.084;2023-03-07T02:04:26;7.80;;;5.25;;
66143;SDS011;52947;50.842;6.084;2023-03-07T02:06:58;9.60;;;5.03;;
66143;SDS011;52947;50.842;6.084;2023-03-07T02:09:28;8.85;;;5.43;;
66143;SDS011;52947;50.842;6.084;2023-03-07T02:12:00;10.68;;;7.30;;
66143;SDS011;52947;50.842;6.084;2023-03-07T02:14:29;9.63;;;6.30;;
66143;SDS011;52947;50.842;6.084;2023-03-07T02:16:58;12.05;;;6.88;;
66143;SDS011;52947;50.842;6.084;2023-03-07T02:19:35;6.85;;;4.72;;
66143;SDS011;52947;50.842;6.084;2023-03-07T02:22:14;8.00;;;5.68;;
66143;SDS011;52947;50.842;6.084;2023-03-07T02:24:47;10.40;;;6.60;;
66143;SDS011;52947;50.842;6.084;2023-03-07T02:27:19;8.10;;;5.32;;
66143;SDS011;52947;50.842;6.084;2023-03-07T02:29:49;6.38;;;4.63;;
66143;SDS011;52947;50.842;6.084;2023-03-07T02:32:17;8.05;;;5.45;;
66143;SDS011;52947;50.842;6.084;2023-03-07T02:34:46;7.53;;;5.22;;
66143;SDS011;52947;50.842;6.084;2023-03-07T02:37:20;7.03;;;4.80;;
66143;SDS011;52947;50.842;6.084;2023-03-07T02:39:52;7.25;;;5.15;;
66143;SDS011;52947;50.842;6.084;2023-03-07T02:42:24;8.75;;;6.32;;
66143;SDS011;52947;50.842;6.084;2023-03-07T02:45:02;8.95;;;5.65;;
66143;SDS011;52947;50.842;6.084;2023-03-07T02:47:34;7.85;;;5.13;;
66143;SDS011;52947;50.842;6.084;2023-03-07T02:50:02;18.50;;;7.30;;
66143;SDS011;52947;50.842;6.084;2023-03-07T02:52:32;9.80;;;5.82;;
66143;SDS011;52947;50.842;6.084;2023-03-07T02:55:00;6.90;;;5.38;;
66143;SDS011;52947;50.842;6.084;2023-03-07T02:57:33;9.30;;;5.75;;
66143;SDS011;52947;50.842;6.084;2023-03-07T03:00:03;7.95;;;5.20;;
66143;SDS011;52947;50.842;6.084;2023-03-07T03:02:33;8.00;;;5.25;;
66143;SDS011;52947;50.842;6.084;2023-03-07T03:05:01;9.23;;;5.07;;
66143;SDS011;52947;50.842;6.084;2023-03-07T03:07:29;9.63;;;5.75;;
66143;SDS011;52947;50.842;6.084;2023-03-07T03:12:28;9.63;;;5.70;;
66143;SDS011;52947;50.842;6.084;2023-03-07T03:14:58;12.38;;;6.38;;
66143;SDS011;52947;50.842;6.084;2023-03-07T03:17:26;8.10;;;5.43;;
66143;SDS011;52947;50.842;6.084;2023-03-07T03:19:55;11.07;;;6.05;;
66143;SDS011;52947;50.842;6.084;2023-03-07T03:22:23;10.90;;;7.07;;
66143;SDS011;52947;50.842;6.084;2023-03-07T03:24:51;10.55;;;6.72;;
66143;SDS011;52947;50.842;6.084;2023-03-07T03:27:19;11.25;;;6.30;;
66143;SDS011;52947;50.842;6.084;2023-03-07T03:29:52;12.57;;;6.40;;
66143;SDS011;52947;50.842;6.084;2023-03-07T03:32:22;12.55;;;7.95;;
66143;SDS011;52947;50.842;6.084;2023-03-07T03:34:49;8.95;;;5.85;;
66143;SDS011;52947;50.842;6.084;2023-03-07T03:37:18;12.88;;;7.15;;
66143;SDS011;52947;50.842;6.084;2023-03-07T03:39:46;9.25;;;5.85;;
66143;SDS011;52947;50.842;6.084;2023-03-07T03:42:14;13.50;;;7.50;;
66143;SDS011;52947;50.842;6.084;2023-03-07T03:44:41;10.90;;;7.28;;
66143;SDS011;52947;50.842;6.084;2023-03-07T03:47:10;14.77;;;8.30;;
66143;SDS011;52947;50.842;6.084;2023-03-07T03:49:40;10.35;;;5.60;;
66143;SDS011;52947;50.842;6.084;2023-03-07T03:52:09;13.85;;;6.80;;
66143;SDS011;52947;50.842;6.084;2023-03-07T03:54:37;14.05;;;7.00;;
66143;SDS011;52947;50.842;6.084;2023-03-07T03:57:05;10.15;;;6.32;;
66143;SDS011;52947;50.842;6.084;2023-03-07T03:59:33;13.35;;;7.97;;
66143;SDS011;52947;50.842;6.084;2023-03-07T04:02:01;11.05;;;6.72;;
66143;SDS011;52947;50.842;6.084;2023-03-07T04:04:29;12.20;;;7.47;;
66143;SDS011;52947;50.842;6.084;2023-03-07T04:06:58;10.27;;;7.45;;
66143;SDS011;52947;50.842;6.084;2023-03-07T04:11:54;11.50;;;7.00;;
66143;SDS011;52947;50.842;6.084;2023-03-07T04:14:22;12.80;;;6.20;;
66143;SDS011;52947;50.842;6.084;2023-03-07T04:16:50;16.25;;;6.72;;
66143;SDS011;52947;50.842;6.084;2023-03-07T04:19:18;10.25;;;6.75;;
66143;SDS011;52947;50.842;6.084;2023-03-07T04:21:48;10.13;;;6.32;;
66143;SDS011;52947;50.842;6.084;2023-03-07T04:24:17;11.85;;;6.25;;
66143;SDS011;52947;50.842;6.084;2023-03-07T04:26:45;10.20;;;6.63;;
66143;SDS011;52947;50.842;6.084;2023-03-07T04:29:14;11.10;;;6.50;;
66143;SDS011;52947;50.842;6.084;2023-03-07T04:31:49;10.40;;;6.25;;
66143;SDS011;52947;50.842;6.084;2023-03-07T04:34:17;12.35;;;6.38;;
66143;SDS011;52947;50.842;6.084;2023-03-07T04:36:45;12.75;;;7.47;;
66143;SDS011;52947;50.842;6.084;2023-03-07T04:39:12;12.18;;;6.97;;
66143;SDS011;52947;50.842;6.084;2023-03-07T04:41:42;10.88;;;6.93;;
66143;SDS011;52947;50.842;6.084;2023-03-07T04:44:15;8.32;;;5.47;;
66143;SDS011;52947;50.842;6.084;2023-03-07T04:46:43;11.27;;;6.72;;
66143;SDS011;52947;50.842;6.084;2023-03-07T04:49:11;10.70;;;7.00;;
66143;SDS011;52947;50.842;6.084;2023-03-07T04:51:39;14.17;;;7.50;;
66143;SDS011;52947;50.842;6.084;2023-03-07T04:54:10;12.88;;;7.10;;
66143;SDS011;52947;50.842;6.084;2023-03-07T04:56:39;11.43;;;6.93;;
66143;SDS011;52947;50.842;6.084;2023-03-07T04:59:10;12.05;;;7.40;;
66143;SDS011;52947;50.842;6.084;2023-03-07T05:01:39;11.45;;;7.38;;
66143;SDS011;52947;50.842;6.084;2023-03-07T05:04:07;11.40;;;6.57;;
66143;SDS011;52947;50.842;6.084;2023-03-07T05:06:37;14.13;;;7.43;;
66143;SDS011;52947;50.842;6.084;2023-03-07T05:09:05;17.20;;;8.02;;
66143;SDS011;52947;50.842;6.084;2023-03-07T05:11:33;7.60;;;5.13;;
66143;SDS011;52947;50.842;6.084;2023-03-07T05:14:01;14.20;;;6.90;;
66143;SDS011;52947;50.842;6.084;2023-03-07T05:16:31;10.13;;;6.28;;
66143;SDS011;52947;50.842;6.084;2023-03-07T05:21:29;14.35;;;7.82;;
66143;SDS011;52947;50.842;6.084;2023-03-07T05:23:57;12.88;;;7.95;;
66143;SDS011;52947;50.842;6.084;2023-03-07T05:26:27;15.00;;;8.20;;
66143;SDS011;52947;50.842;6.084;2023-03-07T05:28:54;10.65;;;6.22;;
66143;SDS011;52947;50.842;6.084;2023-03-07T05:31:22;13.45;;;7.78;;
66143;SDS011;52947;50.842;6.084;2023-03-07T05:33:52;16.67;;;8.23;;
66143;SDS011;52947;50.842;6.084;2023-03-07T05:36:20;11.45;;;7.15;;
66143;SDS011;52947;50.842;6.084;2023-03-07T05:38:48;10.25;;;5.60;;
66143;SDS011;52947;50.842;6.084;2023-03-07T05:41:19;9.18;;;6.40;;
66143;SDS011;52947;50.842;6.084;2023-03-07T05:43:47;14.07;;;6.50;;
66143;SDS011;52947;50.842;6.084;2023-03-07T05:46:15;10.32;;;5.82;;
66143;SDS011;52947;50.842;6.084;2023-03-07T05:48:43;13.13;;;7.63;;
66143;SDS011;52947;50.842;6.084;2023-03-07T05:51:12;13.73;;;7.78;;
66143;SDS011;52947;50.842;6.084;2023-03-07T05:53:40;11.75;;;7.13;;
66143;SDS011;52947;50.842;6.084;2023-03-07T05:56:08;11.45;;;7.45;;
66143;SDS011;52947;50.842;6.084;2023-03-07T05:58:36;14.35;;;8.35;;
66143;SDS011;52947;50.842;6.084;2023-03-07T06:01:04;12.25;;;7.00;;
66143;SDS011;52947;50.842;6.084;2023-03-07T06:03:33;13.15;;;7.90;;
66143;SDS011;52947;50.842;6.084;2023-03-07T06:06:01;12.45;;;7.43;;
66143;SDS011;52947;50.842;6.084;2023-03-07T06:08:30;12.10;;;8.10;;
66143;SDS011;52947;50.842;6.084;2023-03-07T06:13:26;13.20;;;7.72;;
66143;SDS011;52947;50.842;6.084;2023-03-07T06:15:56;14.30;;;6.55;;
66143;SDS011;52947;50.842;6.084;2023-03-07T06:18:25;11.40;;;7.13;;
66143;SDS011;52947;50.842;6.084;2023-03-07T06:20:53;13.43;;;5.93;;
66143;SDS011;52947;50.842;6.084;2023-03-07T06:23:23;13.43;;;7.47;;
66143;SDS011;52947;50.842;6.084;2023-03-07T06:25:53;16.00;;;6.43;;
66143;SDS011;52947;50.842;6.084;2023-03-07T06:28:21;11.35;;;7.13;;
66143;SDS011;52947;50.842;6.084;2023-03-07T06:30:49;13.73;;;6.20;;
66143;SDS011;52947;50.842;6.084;2023-03-07T06:33:18;10.02;;;5.63;;
66143;SDS011;52947;50.842;6.084;2023-03-07T06:35:46;11.07;;;5.85;;
66143;SDS011;52947;50.842;6.084;2023-03-07T06:38:15;12.60;;;6.78;;
66143;SDS011;52947;50.842;6.084;2023-03-07T06:43:13;13.93;;;6.88;;
66143;SDS011;52947;50.842;6.084;2023-03-07T06:48:09;12.45;;;7.38;;
66143;SDS011;52947;50.842;6.084;2023-03-07T06:53:06;12.93;;;6.88;;
66143;SDS011;52947;50.842;6.084;2023-03-07T06:55:35;12.70;;;7.00;;
66143;SDS011;52947;50.842;6.084;2023-03-07T06:58:03;12.85;;;8.50;;
66143;SDS011;52947;50.842;6.084;2023-03-07T07:00:32;15.10;;;7.38;;
66143;SDS011;52947;50.842;6.084;2023-03-07T07:03:00;11.65;;;7.22;;
66143;SDS011;52947;50.842;6.084;2023-03-07T07:05:29;12.25;;;7.85;;
66143;SDS011;52947;50.842;6.084;2023-03-07T07:07:57;10.50;;;6.88;;
66143;SDS011;52947;50.842;6.084;2023-03-07T07:10:25;12.27;;;6.97;;
66143;SDS011;52947;50.842;6.084;2023-03-07T07:12:54;11.88;;;7.32;;
66143;SDS011;52947;50.842;6.084;2023-03-07T07:15:23;10.48;;;6.63;;
66143;SDS011;52947;50.842;6.084;2023-03-07T07:17:53;10.50;;;6.18;;
66143;SDS011;52947;50.842;6.084;2023-03-07T07:20:22;12.82;;;6.68;;
66143;SDS011;52947;50.842;6.084;2023-03-07T07:22:51;9.00;;;5.45;;
66143;SDS011;52947;50.842;6.084;2023-03-07T07:25:19;11.30;;;6.30;;
66143;SDS011;52947;50.842;6.084;2023-03-07T07:27:47;10.40;;;6.22;;
66143;SDS011;52947;50.842;6.084;2023-03-07T07:30:15;9.43;;;6.10;;
66143;SDS011;52947;50.842;6.084;2023-03-07T07:32:43;9.85;;;6.45;;
66143;SDS011;52947;50.842;6.084;2023-03-07T07:35:12;9.48;;;5.45;;
66143;SDS011;52947;50.842;6.084;2023-03-07T07:37:41;8.32;;;5.93;;
66143;SDS011;52947;50.842;6.084;2023-03-07T07:40:09;8.35;;;5.22;;
66143;SDS011;52947;50.842;6.084;2023-03-07T07:42:38;10.60;;;5.40;;
66143;SDS011;52947;50.842;6.084;2023-03-07T07:45:20;9.75;;;5.80;;
66143;SDS011;52947;50.842;6.084;2023-03-07T07:47:48;9.67;;;6.30;;
66143;SDS011;52947;50.842;6.084;2023-03-07T07:50:19;12.65;;;7.07;;
66143;SDS011;52947;50.842;6.084;2023-03-07T07:52:48;9.73;;;6.53;;
66143;SDS011;52947;50.842;6.084;2023-03-07T07:55:16;14.15;;;6.25;;
66143;SDS011;52947;50.842;6.084;2023-03-07T07:57:44;13.13;;;6.75;;
66143;SDS011;52947;50.842;6.084;2023-03-07T08:00:12;10.45;;;6.03;;
66143;SDS011;52947;50.842;6.084;2023-03-07T08:02:46;9.60;;;6.40;;
66143;SDS011;52947;50.842;6.084;2023-03-07T08:05:16;8.07;;;5.35;;
66143;SDS011;52947;50.842;6.084;2023-03-07T08:07:46;10.82;;;7.28;;
66143;SDS011;52947;50.842;6.084;2023-03-07T08:10:16;9.13;;;5.20;;
66143;SDS011;52947;50.842;6.084;2023-03-07T08:12:46;12.98;;;7.07;;
66143;SDS011;52947;50.842;6.084;2023-03-07T08:15:16;12.25;;;6.85;;
66143;SDS011;52947;50.842;6.084;2023-03-07T08:17:47;9.80;;;6.32;;
66143;SDS011;52947;50.842;6.084;2023-03-07T08:20:15;10.88;;;6.22;;
66143;SDS011;52947;50.842;6.084;2023-03-07T08:22:43;13.63;;;6.45;;
66143;SDS011;52947;50.842;6.084;2023-03-07T08:25:18;10.65;;;6.35;;
66143;SDS011;52947;50.842;6.084;2023-03-07T08:27:50;11.90;;;6.75;;
66143;SDS011;52947;50.842;6.084;2023-03-07T08:30:20;12.23;;;6.15;;
66143;SDS011;52947;50.842;6.084;2023-03-07T08:32:49;12.95;;;6.30;;
66143;SDS011;52947;50.842;6.084;2023-03-07T08:35:17;13.50;;;6.75;;
66143;SDS011;52947;50.842;6.084;2023-03-07T08:37:46;14.38;;;7.05;;
66143;SDS011;52947;50.842;6.084;2023-03-07T08:40:16;10.05;;;6.03;;
66143;SDS011;52947;50.842;6.084;2023-03-07T08:42:44;16.25;;;6.57;;
66143;SDS011;52947;50.842;6.084;2023-03-07T08:45:12;12.68;;;6.13;;
66143;SDS011;52947;50.842;6.084;2023-03-07T08:47:40;13.63;;;7.07;;
66143;SDS011;52947;50.842;6.084;2023-03-07T08:50:08;11.18;;;7.15;;
66143;SDS011;52947;50.842;6.084;2023-03-07T08:52:37;15.02;;;6.63;;
66143;SDS011;52947;50.842;6.084;2023-03-07T08:55:05;9.30;;;5.40;;
66143;SDS011;52947;50.842;6.084;2023-03-07T08:57:35;9.97;;;6.23;;
66143;SDS011;52947;50.842;6.084;2023-03-07T09:00:03;9.85;;;6.00;;
66143;SDS011;52947;50.842;6.084;2023-03-07T09:02:34;12.20;;;6.22;;
66143;SDS011;52947;50.842;6.084;2023-03-07T09:05:02;8.75;;;4.80;;
66143;SDS011;52947;50.842;6.084;2023-03-07T09:07:31;11.45;;;6.47;;
66143;SDS011;52947;50.842;6.084;2023-03-07T09:09:59;11.00;;;6.03;;
66143;SDS011;52947;50.842;6.084;2023-03-07T09:12:27;14.93;;;7.03;;
66143;SDS011;52947;50.842;6.084;2023-03-07T09:14:56;10.50;;;6.57;;
66143;SDS011;52947;50.842;6.084;2023-03-07T09:17:24;10.75;;;6.05;;
66143;SDS011;52947;50.842;6.084;2023-03-07T09:19:52;11.65;;;7.75;;
66143;SDS011;52947;50.842;6.084;2023-03-07T09:22:19;9.25;;;5.78;;
66143;SDS011;52947;50.842;6.084;2023-03-07T09:24:47;13.20;;;7.45;;
66143;SDS011;52947;50.842;6.084;2023-03-07T09:27:15;11.63;;;7.40;;
66143;SDS011;52947;50.842;6.084;2023-03-07T09:29:44;17.58;;;7.68;;
66143;SDS011;52947;50.842;6.084;2023-03-07T09:32:14;13.68;;;6.82;;
66143;SDS011;52947;50.842;6.084;2023-03-07T09:37:11;8.10;;;4.70;;
66143;SDS011;52947;50.842;6.084;2023-03-07T09:39:39;7.55;;;5.38;;
66143;SDS011;52947;50.842;6.084;2023-03-07T09:42:10;9.02;;;6.43;;
66143;SDS011;52947;50.842;6.084;2023-03-07T09:44:52;13.20;;;6.80;;
66143;SDS011;52947;50.842;6.084;2023-03-07T09:48:01;12.30;;;6.00;;
66143;SDS011;52947;50.842;6.084;2023-03-07T09:50:39;13.43;;;6.95;;
66143;SDS011;52947;50.842;6.084;2023-03-07T09:53:12;9.18;;;6.05;;
66143;SDS011;52947;50.842;6.084;2023-03-07T09:55:45;12.43;;;8.13;;
66143;SDS011;52947;50.842;6.084;2023-03-07T09:58:17;10.18;;;5.97;;
66143;SDS011;52947;50.842;6.084;2023-03-07T10:00:49;10.88;;;6.05;;
66143;SDS011;52947;50.842;6.084;2023-03-07T10:03:26;11.88;;;6.63;;
66143;SDS011;52947;50.842;6.084;2023-03-07T10:05:58;9.20;;;5.60;;
66143;SDS011;52947;50.842;6.084;2023-03-07T10:08:31;11.95;;;5.93;;
66143;SDS011;52947;50.842;6.084;2023-03-07T10:11:02;12.43;;;6.25;;
66143;SDS011;52947;50.842;6.084;2023-03-07T10:13:44;11.77;;;6.00;;
66143;SDS011;52947;50.842;6.084;2023-03-07T10:16:25;12.15;;;6.68;;
66143;SDS011;52947;50.842;6.084;2023-03-07T10:19:01;12.27;;;7.20;;
66143;SDS011;52947;50.842;6.084;2023-03-07T10:21:38;14.40;;;7.20;;
66143;SDS011;52947;50.842;6.084;2023-03-07T10:24:17;13.20;;;7.57;;
66143;SDS011;52947;50.842;6.084;2023-03-07T10:27:04;11.93;;;6.88;;
66143;SDS011;52947;50.842;6.084;2023-03-07T10:29:35;12.02;;;6.40;;
66143;SDS011;52947;50.842;6.084;2023-03-07T10:32:14;14.80;;;7.55;;
66143;SDS011;52947;50.842;6.084;2023-03-07T10:34:47;10.50;;;5.80;;
66143;SDS011;52947;50.842;6.084;2023-03-07T10:37:22;9.30;;;6.40;;
66143;SDS011;52947;50.842;6.084;2023-03-07T10:40:00;8.95;;;5.45;;
66143;SDS011;52947;50.842;6.084;2023-03-07T10:42:32;11.68;;;6.10;;
66143;SDS011;52947;50.842;6.084;2023-03-07T10:45:05;8.45;;;4.97;;
66143;SDS011;52947;50.842;6.084;2023-03-07T10:47:33;12.02;;;6.90;;
66143;SDS011;52947;50.842;6.084;2023-03-07T10:50:05;7.80;;;4.72;;
66143;SDS011;52947;50.842;6.084;2023-03-07T10:52:44;10.02;;;5.70;;
66143;SDS011;52947;50.842;6.084;2023-03-07T10:55:35;13.63;;;6.80;;
66143;SDS011;52947;50.842;6.084;2023-03-07T10:58:15;10.55;;;5.45;;
66143;SDS011;52947;50.842;6.084;2023-03-07T11:00:55;10.55;;;5.68;;
66143;SDS011;52947;50.842;6.084;2023-03-07T11:03:26;7.57;;;5.30;;
66143;SDS011;52947;50.842;6.084;2023-03-07T11:06:26;11.00;;;5.90;;
66143;SDS011;52947;50.842;6.084;2023-03-07T11:08:58;9.57;;;5.85;;
66143;SDS011;52947;50.842;6.084;2023-03-07T11:11:35;13.68;;;5.53;;
66143;SDS011;52947;50.842;6.084;2023-03-07T11:14:05;12.27;;;6.15;;
66143;SDS011;52947;50.842;6.084;2023-03-07T11:16:38;8.73;;;5.50;;
66143;SDS011;52947;50.842;6.084;2023-03-07T11:22:00;12.57;;;7.45;;
66143;SDS011;52947;50.842;6.084;2023-03-07T11:24:30;11.45;;;7.05;;
66143;SDS011;52947;50.842;6.084;2023-03-07T11:27:03;12.75;;;6.55;;
66143;SDS011;52947;50.842;6.084;2023-03-07T11:29:31;12.25;;;6.90;;
66143;SDS011;52947;50.842;6.084;2023-03-07T11:32:04;10.50;;;6.80;;
66143;SDS011;52947;50.842;6.084;2023-03-07T11:34:42;12.40;;;6.95;;
66143;SDS011;52947;50.842;6.084;2023-03-07T11:37:18;8.98;;;5.75;;
66143;SDS011;52947;50.842;6.084;2023-03-07T11:39:57;11.23;;;5.38;;
66143;SDS011;52947;50.842;6.084;2023-03-07T11:42:39;13.55;;;7.35;;
66143;SDS011;52947;50.842;6.084;2023-03-07T11:45:15;14.13;;;7.15;;
66143;SDS011;52947;50.842;6.084;2023-03-07T11:47:58;9.57;;;6.07;;
66143;SDS011;52947;50.842;6.084;2023-03-07T11:50:32;12.32;;;6.88;;
66143;SDS011;52947;50.842;6.084;2023-03-07T11:56:09;13.40;;;7.38;;
66143;SDS011;52947;50.842;6.084;2023-03-07T11:58:57;13.65;;;7.07;;
66143;SDS011;52947;50.842;6.084;2023-03-07T12:01:53;14.50;;;6.75;;
66143;SDS011;52947;50.842;6.084;2023-03-07T12:07:37;16.23;;;7.53;;
66143;SDS011;52947;50.842;6.084;2023-03-07T12:10:23;12.82;;;7.25;;
66143;SDS011;52947;50.842;6.084;2023-03-07T12:13:01;15.93;;;9.00;;
66143;SDS011;52947;50.842;6.084;2023-03-07T12:15:38;15.15;;;7.60;;
66143;SDS011;52947;50.842;6.084;2023-03-07T12:18:18;14.02;;;8.35;;
66143;SDS011;52947;50.842;6.084;2023-03-07T12:20:58;12.35;;;5.60;;
66143;SDS011;52947;50.842;6.084;2023-03-07T12:23:35;11.75;;;6.55;;
66143;SDS011;52947;50.842;6.084;2023-03-07T12:26:10;15.38;;;8.27;;
66143;SDS011;52947;50.842;6.084;2023-03-07T12:28:44;13.63;;;7.20;;
66143;SDS011;52947;50.842;6.084;2023-03-07T12:31:17;16.90;;;10.18;;
66143;SDS011;52947;50.842;6.084;2023-03-07T12:33:51;18.67;;;8.80;;
66143;SDS011;52947;50.842;6.084;2023-03-07T12:36:26;18.40;;;8.88;;
66143;SDS011;52947;50.842;6.084;2023-03-07T12:39:00;16.02;;;8.90;;
66143;SDS011;52947;50.842;6.084;2023-03-07T12:41:38;18.73;;;8.85;;
66143;SDS011;52947;50.842;6.084;2023-03-07T12:44:12;14.90;;;9.38;;
66143;SDS011;52947;50.842;6.084;2023-03-07T12:46:45;15.95;;;8.73;;
66143;SDS011;52947;50.842;6.084;2023-03-07T12:49:18;16.33;;;8.60;;
66143;SDS011;52947;50.842;6.084;2023-03-07T12:51:52;15.52;;;9.52;;
66143;SDS011;52947;50.842;6.084;2023-03-07T12:54:23;16.30;;;9.35;;
66143;SDS011;52947;50.842;6.084;2023-03-07T12:56:56;18.92;;;8.93;;
66143;SDS011;52947;50.842;6.084;2023-03-07T12:59:29;17.67;;;9.88;;
66143;SDS011;52947;50.842;6.084;2023-03-07T13:02:03;15.55;;;8.63;;
66143;SDS011;52947;50.842;6.084;2023-03-07T13:04:37;14.38;;;9.00;;
66143;SDS011;52947;50.842;6.084;2023-03-07T13:07:08;18.95;;;8.90;;
66143;SDS011;52947;50.842;6.084;2023-03-07T13:09:39;17.02;;;9.65;;
66143;SDS011;52947;50.842;6.084;2023-03-07T13:15:05;14.65;;;7.18;;
66143;SDS011;52947;50.842;6.084;2023-03-07T13:17:54;12.63;;;7.47;;
66143;SDS011;52947;50.842;6.084;2023-03-07T13:20:39;12.00;;;7.10;;
66143;SDS011;52947;50.842;6.084;2023-03-07T13:23:20;10.80;;;5.75;;
66143;SDS011;52947;50.842;6.084;2023-03-07T13:26:01;11.27;;;6.38;;
66143;SDS011;52947;50.842;6.084;2023-03-07T13:28:42;7.80;;;5.45;;
66143;SDS011;52947;50.842;6.084;2023-03-07T13:49:44;4.75;;;3.40;;
66143;SDS011;52947;50.842;6.084;2023-03-07T13:55:00;3.83;;;2.65;;
66143;SDS011;52947;50.842;6.084;2023-03-07T13:57:34;3.00;;;2.03;;
66143;SDS011;52947;50.842;6.084;2023-03-07T14:00:18;4.65;;;2.33;;
66143;SDS011;52947;50.842;6.084;2023-03-07T14:02:50;2.53;;;2.05;;
66143;SDS011;52947;50.842;6.084;2023-03-07T14:05:21;2.65;;;2.13;;
66143;SDS011;52947;50.842;6.084;2023-03-07T14:07:49;2.72;;;1.77;;
66143;SDS011;52947;50.842;6.084;2023-03-07T14:10:22;2.28;;;1.73;;
66143;SDS011;52947;50.842;6.084;2023-03-07T14:16:15;2.40;;;1.67;;
66143;SDS011;52947;50.842;6.084;2023-03-07T14:18:53;2.03;;;1.80;;
66143;SDS011;52947;50.842;6.084;2023-03-07T14:21:36;3.17;;;2.13;;
66143;SDS011;52947;50.842;6.084;2023-03-07T14:24:20;3.42;;;2.72;;
66143;SDS011;52947;50.842;6.084;2023-03-07T14:26:57;4.75;;;3.05;;
66143;SDS011;52947;50.842;6.084;2023-03-07T14:29:26;3.63;;;2.90;;
66143;SDS011;52947;50.842;6.084;2023-03-07T14:34:25;4.95;;;2.95;;
66143;SDS011;52947;50.842;6.084;2023-03-07T14:36:57;5.13;;;3.03;;
66143;SDS011;52947;50.842;6.084;2023-03-07T14:39:28;5.10;;;3.53;;
66143;SDS011;52947;50.842;6.084;2023-03-07T14:42:12;4.97;;;3.10;;
66143;SDS011;52947;50.842;6.084;2023-03-07T14:44:54;6.22;;;3.40;;
66143;SDS011;52947;50.842;6.084;2023-03-07T14:50:32;5.57;;;3.30;;
66143;SDS011;52947;50.842;6.084;2023-03-07T14:53:10;4.63;;;3.17;;
66143;SDS011;52947;50.842;6.084;2023-03-07T14:55:42;4.53;;;3.10;;
66143;SDS011;52947;50.842;6.084;2023-03-07T14:58:15;5.15;;;2.90;;
66143;SDS011;52947;50.842;6.084;2023-03-07T15:00:45;4.97;;;3.08;;
66143;SDS011;52947;50.842;6.084;2023-03-07T15:03:13;4.45;;;2.80;;
66143;SDS011;52947;50.842;6.084;2023-03-07T15:05:45;4.78;;;2.55;;
66143;SDS011;52947;50.842;6.084;2023-03-07T15:08:21;3.35;;;2.42;;
66143;SDS011;52947;50.842;6.084;2023-03-07T15:10:51;3.00;;;2.17;;
66143;SDS011;52947;50.842;6.084;2023-03-07T15:13:26;10.75;;;6.88;;
66143;SDS011;52947;50.842;6.084;2023-03-07T15:15:58;7.20;;;4.03;;
66143;SDS011;52947;50.842;6.084;2023-03-07T15:18:30;5.13;;;3.13;;
66143;SDS011;52947;50.842;6.084;2023-03-07T15:21:01;6.70;;;4.50;;
66143;SDS011;52947;50.842;6.084;2023-03-07T15:23:32;7.45;;;4.72;;
66143;SDS011;52947;50.842;6.084;2023-03-07T15:26:01;12.63;;;9.48;;
66143;SDS011;52947;50.842;6.084;2023-03-07T15:28:32;4.38;;;2.83;;
66143;SDS011;52947;50.842;6.084;2023-03-07T15:31:02;9.98;;;6.85;;
66143;SDS011;52947;50.842;6.084;2023-03-07T15:33:31;11.70;;;7.95;;
66143;SDS011;52947;50.842;6.084;2023-03-07T15:36:16;5.30;;;3.53;;
66143;SDS011;52947;50.842;6.084;2023-03-07T15:38:48;4.70;;;3.22;;
66143;SDS011;52947;50.842;6.084;2023-03-07T15:41:24;4.20;;;3.08;;
66143;SDS011;52947;50.842;6.084;2023-03-07T15:46:47;3.20;;;2.60;;
66143;SDS011;52947;50.842;6.084;2023-03-07T15:49:18;7.57;;;4.55;;
66143;SDS011;52947;50.842;6.084;2023-03-07T15:51:49;7.07;;;4.40;;
66143;SDS011;52947;50.842;6.084;2023-03-07T15:54:22;9.75;;;6.00;;
66143;SDS011;52947;50.842;6.084;2023-03-07T15:56:57;5.53;;;3.63;;
66143;SDS011;52947;50.842;6.084;2023-03-07T15:59:30;6.00;;;4.68;;
66143;SDS011;52947;50.842;6.084;2023-03-07T16:05:27;5.15;;;3.40;;
66143;SDS011;52947;50.842;6.084;2023-03-07T16:07:58;5.93;;;4.05;;
66143;SDS011;52947;50.842;6.084;2023-03-07T16:10:28;7.22;;;5.15;;
66143;SDS011;52947;50.842;6.084;2023-03-07T16:12:58;6.57;;;4.38;;
66143;SDS011;52947;50.842;6.084;2023-03-07T16:15:27;6.75;;;4.72;;
66143;SDS011;52947;50.842;6.084;2023-03-07T16:17:56;7.33;;;5.60;;
66143;SDS011;52947;50.842;6.084;2023-03-07T16:20:24;7.80;;;4.90;;